Time;durP1;ratioP1;P1;durP2;ratioP2;P2;SDS_P1;SDS_P2;PMS_P1;PMS_P2;Temp;Humidity;BMP_temperature;BMP_pressure;BME280_temperature;BME280_humidity;BME280_pressure;Samples;Min_cycle;Max_cycle;Signal;HPM_P1;HPM_P2
2023/01/27 00:00:17;;;;;;;4.18;3.65;;;3.70;99.90;;;;;;5114915;28;20136;-64
2023/01/27 00:02:43;;;;;;;5.93;4.70;;;3.60;99.90;;;;;;5114933;28;20507;-64
2023/01/27 00:05:11;;;;;;;6.22;4.72;;;3.60;99.90;;;;;;5114654;28;20020;-64
2023/01/27 00:07:36;;;;;;;6.32;5.68;;;3.70;99.90;;;;;;5114721;28;20403;-65
2023/01/27 00:10:04;;;;;;;6.13;5.53;;;3.70;99.90;;;;;;5114520;28;20044;-64
2023/01/27 00:15:15;;;;;;;7.05;6.35;;;3.80;99.90;;;;;;5114725;28;20121;-64
2023/01/27 00:17:41;;;;;;;16.45;8.80;;;3.70;99.90;;;;;;5115203;28;20055;-64
2023/01/27 00:20:08;;;;;;;13.32;8.13;;;3.70;99.90;;;;;;5114402;28;20024;-64
2023/01/27 00:25:18;;;;;;;9.68;6.63;;;3.70;99.90;;;;;;5114465;28;20034;-64
2023/01/27 00:27:44;;;;;;;3.85;3.15;;;3.70;99.90;;;;;;5114556;28;20032;-64
2023/01/27 00:30:12;;;;;;;5.70;4.85;;;3.80;99.90;;;;;;5114396;28;20019;-65
2023/01/27 00:35:22;;;;;;;5.32;3.95;;;3.90;99.90;;;;;;5114272;28;20073;-65
2023/01/27 00:37:48;;;;;;;6.35;5.70;;;3.80;99.90;;;;;;5114426;28;20085;-64
2023/01/27 00:40:15;;;;;;;8.18;7.38;;;3.70;99.90;;;;;;5114354;28;20430;-64
2023/01/27 00:42:42;;;;;;;6.90;6.20;;;3.80;99.90;;;;;;5114197;28;20035;-64
2023/01/27 00:47:53;;;;;;;4.85;4.28;;;3.70;99.90;;;;;;5113965;28;20038;-64
2023/01/27 00:50:19;;;;;;;5.60;3.97;;;3.70;99.90;;;;;;5114024;28;20028;-65
2023/01/27 00:52:45;;;;;;;4.72;4.00;;;3.70;99.90;;;;;;5114518;28;20487;-65
2023/01/27 00:55:11;;;;;;;4.90;3.80;;;3.60;99.90;;;;;;5113826;28;20028;-65
2023/01/27 00:57:37;;;;;;;4.50;4.10;;;3.60;99.90;;;;;;5114091;28;20016;-65
2023/01/27 01:00:05;;;;;;;32.42;29.77;;;3.70;99.90;;;;;;5113722;28;20016;-64
2023/01/27 01:02:31;;;;;;;5.82;5.32;;;3.60;99.90;;;;;;5113779;28;20036;-65
2023/01/27 01:04:57;;;;;;;4.13;3.72;;;3.60;99.90;;;;;;5113702;28;20101;-65
2023/01/27 01:07:23;;;;;;;4.70;3.83;;;3.70;99.90;;;;;;5113518;28;20016;-64
2023/01/27 01:09:49;;;;;;;4.63;3.67;;;3.70;99.90;;;;;;5113471;28;20043;-64
2023/01/27 01:12:15;;;;;;;5.30;4.80;;;3.70;99.90;;;;;;5113783;28;20080;-65
2023/01/27 01:14:40;;;;;;;4.20;3.80;;;3.60;99.90;;;;;;5113621;28;20098;-64
2023/01/27 01:17:06;;;;;;;4.38;3.70;;;3.70;99.90;;;;;;5113176;28;20020;-65
2023/01/27 01:19:32;;;;;;;4.80;4.20;;;3.70;99.90;;;;;;5113593;28;20462;-64
2023/01/27 01:21:57;;;;;;;4.63;4.22;;;3.60;99.90;;;;;;5113275;28;20042;-65
2023/01/27 01:24:24;;;;;;;4.20;3.80;;;3.60;99.90;;;;;;5113459;28;20058;-65
2023/01/27 01:26:50;;;;;;;7.75;6.95;;;3.70;99.90;;;;;;5113610;28;20039;-64
2023/01/27 01:29:16;;;;;;;5.20;4.70;;;3.70;99.90;;;;;;5113157;28;20028;-65
2023/01/27 01:31:41;;;;;;;6.55;5.40;;;3.80;99.90;;;;;;5112880;28;20118;-65
2023/01/27 01:34:08;;;;;;;5.85;5.25;;;3.90;99.90;;;;;;5112355;28;20068;-65
2023/01/27 01:36:34;;;;;;;7.68;6.30;;;3.90;99.90;;;;;;5113411;28;20028;-65
2023/01/27 01:38:59;;;;;;;6.28;5.68;;;3.80;99.90;;;;;;5113188;28;20027;-63
2023/01/27 01:41:26;;;;;;;6.45;5.85;;;3.90;99.90;;;;;;5113306;28;20055;-65
2023/01/27 01:43:52;;;;;;;7.10;6.40;;;4.00;99.90;;;;;;5113154;28;20028;-65
2023/01/27 01:46:19;;;;;;;6.63;6.00;;;4.00;99.90;;;;;;5112083;28;20484;-64
2023/01/27 01:48:54;;;;;;;7.50;6.70;;;4.00;99.90;;;;;;5112621;28;20034;-64
2023/01/27 01:52:01;;;;;;;8.40;7.10;;;4.10;99.90;;;;;;5112708;28;20024;-65
2023/01/27 01:54:37;;;;;;;8.00;6.78;;;4.10;99.90;;;;;;5070137;28;20038;-65
2023/01/27 01:57:12;;;;;;;7.55;6.80;;;4.10;99.90;;;;;;5070210;28;20408;-64
2023/01/27 01:59:50;;;;;;;7.20;6.50;;;4.20;99.90;;;;;;5070316;28;20063;-64
2023/01/27 02:02:19;;;;;;;7.03;6.32;;;4.10;99.90;;;;;;5070328;28;20575;-65
2023/01/27 02:04:53;;;;;;;8.65;7.80;;;4.10;99.90;;;;;;5069762;28;20069;-65
2023/01/27 02:07:29;;;;;;;8.82;7.55;;;4.10;99.90;;;;;;5069588;28;20083;-64
2023/01/27 02:09:56;;;;;;;9.07;7.70;;;4.10;99.90;;;;;;5070171;28;20041;-65
2023/01/27 02:12:22;;;;;;;8.18;7.32;;;4.10;99.90;;;;;;5070042;28;20417;-64
2023/01/27 02:14:47;;;;;;;9.57;8.25;;;4.20;99.90;;;;;;5069313;28;20067;-64
2023/01/27 02:17:14;;;;;;;8.85;7.95;;;4.20;99.90;;;;;;5069649;28;20025;-65
2023/01/27 02:20:11;;;;;;;8.38;7.47;;;4.20;99.90;;;;;;5053194;28;20499;-65
2023/01/27 02:22:58;;;;;;;7.63;6.82;;;4.20;99.90;;;;;;5069643;28;20043;-65
2023/01/27 02:25:33;;;;;;;7.18;6.47;;;4.20;99.90;;;;;;5095536;28;20073;-65
2023/01/27 02:27:59;;;;;;;7.47;6.63;;;4.30;99.90;;;;;;5112885;28;20065;-65
2023/01/27 02:30:25;;;;;;;6.97;6.30;;;4.20;99.90;;;;;;5112202;28;20099;-64
2023/01/27 02:32:51;;;;;;;6.75;6.05;;;4.20;99.90;;;;;;5112213;28;20111;-65
2023/01/27 02:35:24;;;;;;;7.00;6.13;;;4.30;99.90;;;;;;5112176;28;20563;-64
2023/01/27 02:37:50;;;;;;;7.60;6.90;;;4.30;99.90;;;;;;5112656;28;20023;-65
2023/01/27 02:40:17;;;;;;;8.07;7.28;;;4.30;99.90;;;;;;5093853;28;20380;-65
2023/01/27 02:42:43;;;;;;;7.50;6.80;;;4.30;99.90;;;;;;5112597;28;20461;-65
2023/01/27 02:45:09;;;;;;;8.52;7.40;;;4.30;99.90;;;;;;5112111;28;20020;-64
2023/01/27 02:47:34;;;;;;;10.20;9.20;;;4.20;99.90;;;;;;5116272;28;20070;-64
2023/01/27 02:50:00;;;;;;;7.80;7.00;;;4.20;99.90;;;;;;5116377;28;20044;-65
2023/01/27 02:52:26;;;;;;;7.25;6.55;;;4.30;99.90;;;;;;5116366;28;20026;-65
2023/01/27 02:54:51;;;;;;;7.57;6.15;;;4.30;99.90;;;;;;5116270;28;20027;-64
2023/01/27 02:57:17;;;;;;;7.30;6.53;;;4.20;99.90;;;;;;5116339;28;20046;-65
2023/01/27 02:59:43;;;;;;;6.82;6.05;;;4.30;99.90;;;;;;5116074;28;20476;-64
2023/01/27 03:02:13;;;;;;;7.65;6.60;;;4.30;99.90;;;;;;5116155;28;20122;-65
2023/01/27 03:04:39;;;;;;;7.55;6.75;;;4.30;99.90;;;;;;5116420;28;20011;-64
2023/01/27 03:07:05;;;;;;;6.05;5.45;;;4.20;99.90;;;;;;5115994;28;20038;-64
2023/01/27 03:09:31;;;;;;;7.45;6.70;;;4.20;99.90;;;;;;5115959;28;20120;-65
2023/01/27 03:20:09;;;;;;;6.30;5.35;;;4.30;99.90;;;;;;5116002;28;20097;-65
2023/01/27 03:22:35;;;;;;;6.05;5.45;;;4.30;99.90;;;;;;5115655;28;20043;-64
2023/01/27 03:25:01;;;;;;;6.38;5.78;;;4.20;99.90;;;;;;5115566;28;20024;-64
2023/01/27 03:27:26;;;;;;;7.55;6.75;;;4.30;99.90;;;;;;5115760;28;20111;-65
2023/01/27 03:29:55;;;;;;;7.32;6.30;;;4.30;99.90;;;;;;5115749;28;20020;-65
2023/01/27 03:32:26;;;;;;;7.45;6.75;;;4.30;99.90;;;;;;5115670;28;20171;-64
2023/01/27 03:34:52;;;;;;;7.13;6.45;;;4.30;99.90;;;;;;5115273;28;20035;-64
2023/01/27 03:48:20;;;;;;;6.65;5.80;;;4.30;99.90;;;;;;5094901;28;20400;-64
2023/01/27 03:50:51;;;;;;;6.07;5.47;;;4.30;99.90;;;;;;5095302;28;20032;-64
2023/01/27 03:53:18;;;;;;;6.00;5.40;;;4.30;99.90;;;;;;5094762;28;20020;-64
2023/01/27 03:55:45;;;;;;;5.90;5.20;;;4.30;99.90;;;;;;5094361;28;20103;-64
2023/01/27 03:58:27;;;;;;;6.25;5.53;;;4.30;99.90;;;;;;5094054;28;20031;-65
2023/01/27 04:01:20;;;;;;;6.63;5.93;;;4.30;99.90;;;;;;5094506;28;20622;-64
2023/01/27 04:09:20;;;;;;;6.03;5.43;;;4.30;99.90;;;;;;5114913;28;20072;-64
2023/01/27 04:11:57;;;;;;;6.38;5.68;;;4.30;99.90;;;;;;5114490;28;20031;-64
2023/01/27 04:14:31;;;;;;;6.60;5.85;;;4.30;99.90;;;;;;5114693;28;20024;-64
2023/01/27 04:17:11;;;;;;;7.20;6.50;;;4.30;99.90;;;;;;5114538;28;20047;-64
2023/01/27 04:19:37;;;;;;;8.00;6.60;;;4.30;99.90;;;;;;5115136;28;20031;-64
2023/01/27 04:22:04;;;;;;;7.88;6.88;;;4.30;99.90;;;;;;5114670;28;20043;-64
2023/01/27 04:24:30;;;;;;;9.50;8.27;;;4.30;99.90;;;;;;5114524;28;20103;-64
2023/01/27 04:26:59;;;;;;;8.77;7.88;;;4.30;99.90;;;;;;5113980;28;20130;-64
2023/01/27 04:29:27;;;;;;;8.95;7.82;;;4.30;99.90;;;;;;5114498;28;20027;-64
2023/01/27 04:31:54;;;;;;;9.30;8.10;;;4.30;99.90;;;;;;5114324;28;20046;-64
2023/01/27 04:34:20;;;;;;;7.57;6.65;;;4.30;99.90;;;;;;5114656;28;20039;-64
2023/01/27 04:36:46;;;;;;;8.38;7.57;;;4.30;99.90;;;;;;5114677;28;20036;-64
2023/01/27 04:39:12;;;;;;;7.30;6.60;;;4.30;99.90;;;;;;5114082;28;20051;-65
2023/01/27 04:41:38;;;;;;;8.18;7.38;;;4.30;99.90;;;;;;5114211;28;20035;-64
2023/01/27 04:44:05;;;;;;;9.60;7.97;;;4.30;99.90;;;;;;5114269;28;20035;-64
2023/01/27 04:46:31;;;;;;;11.50;9.40;;;4.30;99.90;;;;;;5114238;28;20016;-64
2023/01/27 04:48:57;;;;;;;10.68;8.60;;;4.30;99.90;;;;;;5114174;28;20061;-64
2023/01/27 04:51:23;;;;;;;10.95;9.52;;;4.40;99.90;;;;;;5114109;28;20425;-64
2023/01/27 04:53:49;;;;;;;9.50;8.50;;;4.30;99.90;;;;;;5113683;28;20106;-64
2023/01/27 04:56:37;;;;;;;10.52;8.13;;;4.40;99.90;;;;;;5113954;28;20012;-64
2023/01/27 04:59:05;;;;;;;8.63;7.82;;;4.40;99.90;;;;;;5114029;28;20039;-64
2023/01/27 05:01:31;;;;;;;9.80;8.80;;;4.30;99.90;;;;;;5113631;28;20504;-64
2023/01/27 05:03:57;;;;;;;9.23;8.30;;;4.40;99.90;;;;;;5113805;28;20020;-64
2023/01/27 05:06:24;;;;;;;10.00;9.00;;;4.40;99.90;;;;;;5113674;28;20042;-64
2023/01/27 05:08:50;;;;;;;9.43;8.43;;;4.30;99.90;;;;;;5112900;28;20435;-65
2023/01/27 05:11:17;;;;;;;10.20;9.23;;;4.30;99.90;;;;;;5113458;28;20048;-64
2023/01/27 05:13:43;;;;;;;9.90;8.68;;;4.30;99.90;;;;;;5113739;28;20048;-64
2023/01/27 05:16:19;;;;;;;10.00;9.05;;;4.30;99.90;;;;;;5113817;28;20058;-64
2023/01/27 05:18:47;;;;;;;9.98;8.98;;;4.30;99.90;;;;;;5113429;28;20027;-64
2023/01/27 05:21:19;;;;;;;10.23;9.30;;;4.40;99.90;;;;;;5113373;28;20055;-64
2023/01/27 05:23:45;;;;;;;10.00;9.10;;;4.40;99.90;;;;;;5094704;28;20101;-64
2023/01/27 05:26:13;;;;;;;10.35;9.40;;;4.40;99.90;;;;;;5113254;28;20035;-64
2023/01/27 05:28:42;;;;;;;10.25;9.25;;;4.30;99.90;;;;;;5095036;28;20042;-64
2023/01/27 05:31:30;;;;;;;10.25;9.25;;;4.40;99.90;;;;;;5113227;28;20552;-64
2023/01/27 05:33:58;;;;;;;10.82;9.82;;;4.30;99.90;;;;;;5113389;28;20103;-64
2023/01/27 05:36:24;;;;;;;11.63;10.43;;;4.30;99.90;;;;;;5113159;28;20828;-63
2023/01/27 05:38:51;;;;;;;11.25;10.15;;;4.30;99.90;;;;;;5112825;28;20023;-64
2023/01/27 05:41:18;;;;;;;10.30;9.30;;;4.30;99.90;;;;;;5113133;28;20235;-64
2023/01/27 05:43:45;;;;;;;10.95;9.77;;;4.20;99.90;;;;;;5113475;28;20498;-64
2023/01/27 05:46:12;;;;;;;10.95;9.93;;;4.20;99.90;;;;;;5112759;28;20080;-64
2023/01/27 05:48:43;;;;;;;11.00;9.90;;;4.10;99.90;;;;;;5112752;28;20483;-64
2023/01/27 05:51:11;;;;;;;10.40;9.43;;;4.10;99.90;;;;;;5113357;28;20032;-64
2023/01/27 05:53:36;;;;;;;10.93;9.55;;;4.00;99.90;;;;;;5112562;28;20042;-64
2023/01/27 05:56:03;;;;;;;12.75;9.93;;;4.00;99.90;;;;;;5112882;28;20023;-64
2023/01/27 05:58:30;;;;;;;11.73;10.45;;;4.10;99.90;;;;;;5112890;28;20081;-64
2023/01/27 06:00:56;;;;;;;12.40;11.20;;;4.00;99.90;;;;;;5112394;28;20476;-64
2023/01/27 06:03:22;;;;;;;12.07;10.30;;;4.10;99.90;;;;;;5112825;28;20368;-64
2023/01/27 06:05:52;;;;;;;12.02;10.82;;;4.00;99.90;;;;;;5113147;28;20076;-64
2023/01/27 06:08:18;;;;;;;11.15;10.05;;;4.00;99.90;;;;;;5112303;28;20020;-64
2023/01/27 06:10:44;;;;;;;11.93;10.68;;;4.00;99.90;;;;;;5112688;28;20172;-64
2023/01/27 06:13:10;;;;;;;12.50;11.20;;;4.00;99.90;;;;;;5112456;28;20050;-64
2023/01/27 06:15:39;;;;;;;12.52;10.90;;;3.90;99.90;;;;;;5112620;28;20047;-64
2023/01/27 06:18:05;;;;;;;12.45;11.15;;;3.90;99.90;;;;;;5112583;28;20023;-64
2023/01/27 06:20:30;;;;;;;11.85;10.68;;;3.90;99.90;;;;;;5112173;28;20077;-64
2023/01/27 06:22:56;;;;;;;11.57;10.40;;;3.90;99.90;;;;;;5112348;28;20035;-64
2023/01/27 06:25:22;;;;;;;11.70;10.50;;;3.90;99.90;;;;;;5112702;28;20391;-64
2023/01/27 06:27:47;;;;;;;11.95;10.75;;;3.90;99.90;;;;;;5112488;28;20047;-64
2023/01/27 06:30:13;;;;;;;12.15;10.93;;;3.90;99.90;;;;;;5112445;28;20028;-64
2023/01/27 06:32:39;;;;;;;13.52;11.45;;;3.90;99.90;;;;;;5112383;28;20383;-64
2023/01/27 06:35:05;;;;;;;11.63;10.40;;;3.80;99.90;;;;;;5112837;28;20030;-64
2023/01/27 06:37:31;;;;;;;12.00;10.50;;;3.90;99.90;;;;;;5111859;28;20031;-64
2023/01/27 06:39:56;;;;;;;11.80;10.57;;;3.90;99.90;;;;;;5112480;28;20024;-64
2023/01/27 06:42:22;;;;;;;13.35;11.52;;;3.70;99.90;;;;;;5112725;28;20035;-64
2023/01/27 06:44:48;;;;;;;13.50;12.10;;;3.60;99.90;;;;;;5112373;28;20514;-65
2023/01/27 06:47:13;;;;;;;13.38;11.15;;;3.60;99.90;;;;;;5112085;28;20034;-64
2023/01/27 06:49:39;;;;;;;13.45;12.07;;;3.60;99.90;;;;;;5111898;28;20032;-64
2023/01/27 06:52:05;;;;;;;13.35;11.77;;;3.60;99.90;;;;;;5112314;28;20032;-64
2023/01/27 06:54:30;;;;;;;14.02;12.20;;;3.50;99.90;;;;;;5112260;28;20548;-64
2023/01/27 06:56:56;;;;;;;13.13;11.80;;;3.50;99.90;;;;;;5112415;28;20050;-64
2023/01/27 06:59:22;;;;;;;14.32;12.60;;;3.40;99.90;;;;;;5112205;28;20034;-64
2023/01/27 07:01:47;;;;;;;13.88;12.48;;;3.50;99.90;;;;;;5093867;28;20054;-64
2023/01/27 07:04:13;;;;;;;16.38;14.63;;;3.40;99.90;;;;;;5111205;28;20433;-64
2023/01/27 07:06:39;;;;;;;19.38;16.75;;;3.60;99.90;;;;;;5112010;28;20081;-63
2023/01/27 07:09:05;;;;;;;20.55;18.50;;;3.60;99.90;;;;;;5112126;28;20103;-64
2023/01/27 07:11:31;;;;;;;20.20;17.95;;;3.50;99.90;;;;;;5112126;28;20118;-64
2023/01/27 07:13:56;;;;;;;20.88;18.60;;;3.50;99.90;;;;;;5112573;28;20020;-64
2023/01/27 07:16:22;;;;;;;17.98;16.05;;;3.50;99.90;;;;;;5112050;28;20567;-64
2023/01/27 07:18:48;;;;;;;18.70;16.70;;;3.50;99.90;;;;;;5111686;28;20365;-64
2023/01/27 07:21:13;;;;;;;20.90;17.55;;;3.50;99.90;;;;;;5111753;28;20028;-64
2023/01/27 07:23:39;;;;;;;16.77;13.63;;;3.50;99.90;;;;;;5112246;28;20028;-64
2023/01/27 07:26:05;;;;;;;16.80;13.25;;;3.60;99.90;;;;;;5111942;28;20547;-63
2023/01/27 07:28:30;;;;;;;15.38;12.00;;;3.50;99.90;;;;;;5112030;28;20035;-63
2023/01/27 07:31:00;;;;;;;14.02;11.90;;;3.60;99.90;;;;;;5111977;28;20034;-64
2023/01/27 07:33:26;;;;;;;19.38;13.00;;;3.60;99.90;;;;;;5113851;28;20107;-63
2023/01/27 07:35:52;;;;;;;17.75;14.43;;;3.70;99.90;;;;;;5115513;28;20119;-63
2023/01/27 07:38:17;;;;;;;20.95;13.50;;;3.70;99.90;;;;;;5115504;28;20015;-63
2023/01/27 07:40:43;;;;;;;18.85;11.90;;;3.80;99.90;;;;;;5115384;28;20027;-64
2023/01/27 07:43:10;;;;;;;20.08;11.40;;;3.80;99.90;;;;;;5115522;28;20055;-64
2023/01/27 07:45:36;;;;;;;19.35;11.68;;;3.80;99.90;;;;;;5115275;28;20496;-63
2023/01/27 07:48:03;;;;;;;22.95;10.73;;;3.80;99.90;;;;;;5115168;28;20038;-63
2023/01/27 07:50:29;;;;;;;20.60;9.65;;;3.90;99.90;;;;;;5115121;28;20046;-63
2023/01/27 07:53:04;;;;;;;19.65;12.38;;;4.00;99.90;;;;;;5115164;28;20556;-61
2023/01/27 07:55:31;;;;;;;17.80;9.15;;;4.00;99.90;;;;;;5115573;28;20024;-63
2023/01/27 07:57:57;;;;;;;19.60;8.70;;;4.00;99.90;;;;;;5115156;28;20034;-62
2023/01/27 08:00:23;;;;;;;21.83;13.00;;;4.00;99.90;;;;;;5114728;28;20028;-64
2023/01/27 08:02:58;;;;;;;23.88;13.85;;;4.00;99.90;;;;;;5114650;28;20038;-64
2023/01/27 08:05:24;;;;;;;34.70;26.20;;;4.00;99.90;;;;;;5114827;28;20024;-62
2023/01/27 08:07:50;;;;;;;152.65;109.45;;;4.00;99.90;;;;;;5115278;28;20027;-63
2023/01/27 08:10:20;;;;;;;95.93;67.72;;;3.90;99.90;;;;;;5114614;28;20043;-63
2023/01/27 08:12:46;;;;;;;48.53;34.05;;;3.90;99.90;;;;;;5114694;28;20569;-63
2023/01/27 08:15:11;;;;;;;30.25;18.38;;;3.90;99.90;;;;;;5115132;28;20027;-64
2023/01/27 08:17:37;;;;;;;47.17;30.40;;;3.90;99.90;;;;;;5114518;28;20065;-63
2023/01/27 08:20:04;;;;;;;52.55;35.65;;;4.20;99.90;;;;;;5115223;28;20026;-63
2023/01/27 08:22:30;;;;;;;25.60;15.32;;;4.80;99.90;;;;;;5114660;28;20077;-63
2023/01/27 08:24:56;;;;;;;128.65;93.13;;;4.30;99.90;;;;;;5114460;28;20535;-63
2023/01/27 08:27:22;;;;;;;126.78;92.32;;;4.20;99.90;;;;;;5114587;28;20102;-64
2023/01/27 08:29:48;;;;;;;45.15;28.92;;;4.10;99.90;;;;;;5114506;28;20023;-63
2023/01/27 08:32:13;;;;;;;23.15;12.40;;;4.10;99.90;;;;;;5114623;28;20364;-64
2023/01/27 08:34:39;;;;;;;24.38;12.38;;;4.20;99.90;;;;;;5114406;28;20026;-63
2023/01/27 08:37:06;;;;;;;28.55;20.30;;;4.30;99.90;;;;;;5114521;28;20428;-64
2023/01/27 08:39:32;;;;;;;21.55;13.82;;;4.40;99.90;;;;;;5114671;28;20035;-64
2023/01/27 08:41:58;;;;;;;21.30;11.48;;;4.40;99.90;;;;;;5114154;28;20035;-63
2023/01/27 08:44:24;;;;;;;21.58;10.75;;;4.60;99.90;;;;;;5113933;28;20388;-64
2023/01/27 08:46:50;;;;;;;60.58;36.90;;;4.70;99.90;;;;;;5113986;28;20046;-63
2023/01/27 08:49:15;;;;;;;68.38;40.58;;;4.80;99.90;;;;;;5114096;28;20024;-64
2023/01/27 08:51:41;;;;;;;70.18;47.47;;;4.90;99.90;;;;;;5114134;28;20034;-64
2023/01/27 08:54:08;;;;;;;113.50;75.65;;;4.80;99.90;;;;;;5113824;28;20020;-63
2023/01/27 08:56:34;;;;;;;159.95;113.00;;;4.80;99.90;;;;;;5114140;28;20436;-64
2023/01/27 08:59:00;;;;;;;60.08;38.80;;;4.90;99.90;;;;;;5114275;28;20034;-64
2023/01/27 09:01:26;;;;;;;61.42;40.78;;;5.00;99.90;;;;;;5113353;28;20031;-63
2023/01/27 09:03:52;;;;;;;53.10;34.97;;;5.00;99.90;;;;;;5113624;28;20501;-64
2023/01/27 09:06:20;;;;;;;70.95;49.30;;;5.00;99.90;;;;;;5113666;28;20020;-63
2023/01/27 09:09:07;;;;;;;32.92;18.35;;;5.10;99.90;;;;;;5113706;28;20040;-64
2023/01/27 09:11:32;;;;;;;37.85;26.02;;;5.10;99.90;;;;;;5113981;28;20055;-63
2023/01/27 09:13:58;;;;;;;25.85;12.63;;;5.30;99.90;;;;;;5113581;28;20019;-63
2023/01/27 09:16:23;;;;;;;17.38;7.53;;;5.40;99.90;;;;;;5113291;28;20482;-64
2023/01/27 09:18:49;;;;;;;14.48;6.82;;;5.40;99.90;;;;;;5113508;28;20016;-63
2023/01/27 09:21:15;;;;;;;31.05;20.25;;;5.60;99.90;;;;;;5113779;28;20036;-63
2023/01/27 09:23:41;;;;;;;108.32;75.80;;;5.90;99.90;;;;;;5113573;28;20050;-63
2023/01/27 09:26:06;;;;;;;22.40;13.52;;;6.20;99.90;;;;;;5113295;28;20040;-63
2023/01/27 09:28:32;;;;;;;127.50;90.18;;;6.20;99.90;;;;;;5113442;28;20088;-64
2023/01/27 09:30:58;;;;;;;44.80;39.05;;;6.20;99.90;;;;;;5112932;28;20024;-63
2023/01/27 09:33:25;;;;;;;16.52;10.68;;;6.40;99.90;;;;;;5113378;28;20082;-63
2023/01/27 09:35:58;;;;;;;12.70;7.35;;;6.40;99.90;;;;;;5094985;28;20391;-63
2023/01/27 09:38:27;;;;;;;15.10;7.32;;;6.60;99.90;;;;;;5113360;28;20099;-64
2023/01/27 09:40:53;;;;;;;15.15;7.15;;;6.90;99.90;;;;;;5113069;28;20085;-63
2023/01/27 09:43:25;;;;;;;18.05;9.00;;;7.70;99.90;;;;;;5113142;28;20032;-63
2023/01/27 09:45:53;;;;;;;16.48;7.15;;;9.10;99.90;;;;;;5112795;28;20399;-63
2023/01/27 09:48:37;;;;;;;13.43;6.75;;;9.90;99.90;;;;;;5092477;28;20380;-63
2023/01/27 09:51:38;;;;;;;15.98;8.48;;;9.10;99.90;;;;;;5092522;28;20560;-63
2023/01/27 09:54:41;;;;;;;14.32;8.43;;;8.30;99.90;;;;;;5092587;28;20113;-63
2023/01/27 09:57:16;;;;;;;16.88;8.02;;;8.30;99.90;;;;;;5092027;28;20024;-63
2023/01/27 10:00:28;;;;;;;13.05;5.60;;;8.10;99.90;;;;;;5092335;28;20028;-63
2023/01/27 10:03:16;;;;;;;14.23;6.65;;;8.70;99.90;;;;;;5029948;28;20084;-63
2023/01/27 10:06:18;;;;;;;13.70;5.25;;;9.30;99.90;;;;;;5029925;28;20124;-63
2023/01/27 10:08:55;;;;;;;17.10;8.20;;;9.70;99.90;;;;;;5049651;28;20156;-63
2023/01/27 10:11:52;;;;;;;10.80;3.95;;;12.50;99.90;;;;;;5049884;28;20183;-63
2023/01/27 10:14:17;;;;;;;12.43;3.67;;;14.40;99.90;;;;;;5049470;28;20071;-63
2023/01/27 10:17:02;;;;;;;10.02;3.80;;;14.40;99.90;;;;;;5050224;28;20067;-63
2023/01/27 10:19:27;;;;;;;8.88;3.47;;;11.70;99.90;;;;;;5049711;28;20037;-63
2023/01/27 10:22:06;;;;;;;9.80;3.13;;;10.60;99.90;;;;;;5049763;28;20405;-64
2023/01/27 10:24:39;;;;;;;9.13;3.08;;;14.10;99.90;;;;;;5049655;28;20037;-63
2023/01/27 10:27:23;;;;;;;8.68;3.05;;;14.10;99.90;;;;;;5049743;28;20037;-63
2023/01/27 10:29:57;;;;;;;7.57;3.28;;;15.80;99.90;;;;;;5049963;28;20116;-63
2023/01/27 10:32:29;;;;;;;5.90;2.50;;;15.80;99.90;;;;;;5049752;28;20083;-63
2023/01/27 10:35:19;;;;;;;7.97;2.70;;;13.60;99.90;;;;;;5049797;28;20029;-63
2023/01/27 10:37:54;;;;;;;6.85;2.40;;;14.70;99.90;;;;;;5054693;28;20043;-63
2023/01/27 10:40:57;;;;;;;7.75;3.00;;;15.80;99.90;;;;;;5094168;28;20422;-63
2023/01/27 10:43:48;;;;;;;7.85;2.65;;;13.20;99.90;;;;;;5112002;28;20447;-63
2023/01/27 10:46:25;;;;;;;5.75;2.63;;;10.20;99.90;;;;;;5109510;28;20058;-64
2023/01/27 10:48:59;;;;;;;5.30;2.30;;;9.60;99.90;;;;;;5092186;28;20036;-64
2023/01/27 10:51:36;;;;;;;4.72;2.13;;;11.10;99.90;;;;;;5091823;28;20484;-64
2023/01/27 10:54:30;;;;;;;5.20;2.25;;;10.40;99.90;;;;;;5091986;28;20039;-63
2023/01/27 10:56:59;;;;;;;;;;;10.40;99.90;;;;;;5092056;28;20008;-63
2023/01/27 10:59:38;;;;;;;5.78;3.17;;;10.10;99.90;;;;;;5091849;28;20693;-64
2023/01/27 11:02:32;;;;;;;5.57;2.30;;;10.50;99.90;;;;;;5092018;28;20028;-63
2023/01/27 11:05:00;;;;;;;6.53;2.45;;;9.90;99.90;;;;;;5091743;28;20031;-63
2023/01/27 11:07:27;;;;;;;7.13;2.40;;;9.70;99.90;;;;;;5103046;28;20065;-63
2023/01/27 11:10:01;;;;;;;4.60;2.10;;;9.60;99.90;;;;;;5115868;28;20059;-64
2023/01/27 11:12:43;;;;;;;6.78;2.80;;;11.90;99.90;;;;;;5116166;28;20020;-64
2023/01/27 11:15:34;;;;;;;6.55;2.70;;;12.90;99.90;;;;;;5115942;28;20035;-63
2023/01/27 11:18:22;;;;;;;6.75;2.80;;;11.60;99.90;;;;;;5115818;28;20058;-63
2023/01/27 11:21:12;;;;;;;5.25;1.80;;;10.00;99.90;;;;;;5115704;28;20024;-64
2023/01/27 11:23:41;;;;;;;6.07;2.22;;;9.30;99.90;;;;;;5116037;28;20507;-64
2023/01/27 11:26:19;;;;;;;6.53;2.38;;;9.30;99.90;;;;;;5115784;28;20026;-64
2023/01/27 11:29:04;;;;;;;6.90;2.50;;;8.90;99.90;;;;;;5116207;28;20391;-64
2023/01/27 11:31:56;;;;;;;7.13;2.13;;;8.70;99.90;;;;;;5115542;28;20028;-63
2023/01/27 11:34:39;;;;;;;5.57;2.30;;;8.40;99.90;;;;;;5115711;28;20380;-63
2023/01/27 11:37:45;;;;;;;6.20;2.45;;;8.00;99.90;;;;;;5115779;28;20429;-64
2023/01/27 11:40:36;;;;;;;7.45;2.53;;;8.10;99.90;;;;;;5130615;27;20024;-64
2023/01/27 11:43:03;;;;;;;5.45;2.30;;;7.50;99.90;;;;;;5115520;28;20039;-64
2023/01/27 11:45:34;;;;;;;4.10;2.00;;;7.70;99.90;;;;;;5115438;28;20086;-63
2023/01/27 11:48:01;;;;;;;4.60;2.25;;;7.70;99.90;;;;;;5097907;28;20020;-64
2023/01/27 11:50:34;;;;;;;6.25;2.65;;;7.30;99.90;;;;;;5094979;28;20020;-64
2023/01/27 11:53:25;;;;;;;7.20;2.30;;;7.90;99.90;;;;;;5094840;28;20432;-63
2023/01/27 11:56:02;;;;;;;6.45;2.65;;;7.90;99.90;;;;;;5094910;28;20028;-63
2023/01/27 11:59:26;;;;;;;8.98;2.63;;;9.10;99.90;;;;;;5094786;28;20020;-64
2023/01/27 12:02:08;;;;;;;6.07;2.10;;;9.10;99.90;;;;;;5029089;28;20124;-64
2023/01/27 12:05:00;;;;;;;5.57;2.25;;;9.70;99.90;;;;;;5032221;28;20457;-64
2023/01/27 12:07:35;;;;;;;4.78;2.20;;;9.50;99.90;;;;;;5040886;28;20398;-64
2023/01/27 12:10:02;;;;;;;6.82;2.70;;;8.30;99.90;;;;;;5051622;28;20144;-63
2023/01/27 12:12:28;;;;;;;6.72;2.97;;;8.10;99.90;;;;;;5052058;28;20036;-64
2023/01/27 12:14:55;;;;;;;5.10;2.15;;;8.10;99.90;;;;;;5051649;28;20025;-63
2023/01/27 12:17:46;;;;;;;4.65;2.13;;;7.90;99.90;;;;;;5051749;28;20040;-63
2023/01/27 12:20:20;;;;;;;7.65;2.80;;;8.10;99.90;;;;;;5052208;28;20405;-63
2023/01/27 12:22:52;;;;;;;6.88;2.78;;;8.10;99.90;;;;;;5052108;28;20119;-64
2023/01/27 12:25:23;;;;;;;6.97;2.50;;;8.30;99.90;;;;;;5051349;28;20167;-64
2023/01/27 12:27:52;;;;;;;7.55;2.60;;;8.40;99.90;;;;;;5051825;28;20115;-63
2023/01/27 12:30:27;;;;;;;7.30;2.47;;;8.60;99.90;;;;;;5051559;28;20037;-64
2023/01/27 12:32:53;;;;;;;12.07;3.03;;;8.80;99.90;;;;;;5051731;28;20029;-63
2023/01/27 12:35:35;;;;;;;4.90;2.13;;;8.40;99.90;;;;;;5051883;28;20074;-63
2023/01/27 12:38:11;;;;;;;4.95;2.15;;;8.20;99.90;;;;;;5108328;28;20036;-64
2023/01/27 12:40:40;;;;;;;5.38;2.20;;;8.10;99.90;;;;;;5114285;28;20037;-64
2023/01/27 12:43:20;;;;;;;6.70;2.13;;;8.30;99.90;;;;;;5114275;28;20027;-64
2023/01/27 12:46:04;;;;;;;4.07;2.10;;;9.00;99.90;;;;;;5114181;28;20032;-64
2023/01/27 12:48:32;;;;;;;6.65;2.50;;;9.00;99.90;;;;;;5073468;28;20043;-64
2023/01/27 12:51:42;;;;;;;5.05;2.25;;;8.90;99.90;;;;;;5073525;28;20021;-64
2023/01/27 12:54:15;;;;;;;5.63;2.28;;;8.90;99.90;;;;;;5010856;28;20068;-64
2023/01/27 12:56:42;;;;;;;7.45;2.58;;;9.10;99.90;;;;;;5011692;28;20108;-64
2023/01/27 12:59:15;;;;;;;5.75;2.13;;;9.30;99.90;;;;;;5011798;28;20029;-64
2023/01/27 13:01:42;;;;;;;5.85;2.05;;;8.90;99.90;;;;;;5011356;28;20033;-64
2023/01/27 13:04:16;;;;;;;5.50;2.58;;;9.10;99.90;;;;;;5011366;28;20481;-63
2023/01/27 13:06:44;;;;;;;8.93;2.78;;;8.30;99.90;;;;;;5016454;28;20041;-63
2023/01/27 13:09:25;;;;;;;5.00;2.30;;;8.60;99.90;;;;;;5049575;28;20110;-63
2023/01/27 13:11:53;;;;;;;6.78;2.88;;;7.60;99.90;;;;;;5031497;28;20045;-63
2023/01/27 13:14:18;;;;;;;10.13;4.00;;;7.70;99.90;;;;;;5030948;28;20030;-63
2023/01/27 13:16:52;;;;;;;7.45;3.17;;;7.60;99.90;;;;;;5031005;28;20034;-63
2023/01/27 13:19:18;;;;;;;6.32;3.10;;;7.40;99.90;;;;;;5031045;28;20186;-63
2023/01/27 13:21:49;;;;;;;11.15;3.47;;;7.50;99.90;;;;;;5031109;28;20529;-64
2023/01/27 13:24:23;;;;;;;8.90;3.10;;;7.70;99.90;;;;;;5030741;28;20552;-63
2023/01/27 13:26:50;;;;;;;9.55;3.72;;;7.70;99.90;;;;;;5030812;28;20037;-64
2023/01/27 13:29:23;;;;;;;8.18;3.75;;;7.50;99.90;;;;;;5030852;28;20033;-64
2023/01/27 13:32:04;;;;;;;8.63;3.60;;;7.40;99.90;;;;;;5091597;28;20094;-63
2023/01/27 13:34:31;;;;;;;8.88;3.30;;;7.50;99.90;;;;;;5092821;28;20095;-64
2023/01/27 13:37:46;;;;;;;5.97;2.88;;;7.60;99.90;;;;;;5092869;28;20031;-64
2023/01/27 13:40:17;;;;;;;4.43;2.10;;;7.60;99.90;;;;;;5050717;28;20048;-64
2023/01/27 13:43:01;;;;;;;4.25;1.70;;;7.90;99.90;;;;;;5050093;28;20123;-64